sensor_id;sensor_type;location;lat;lon;timestamp;P1;durP1;ratioP1;P2;durP2;ratioP2
77598;SDS011;66758;52.078;5.070;2024-02-26T00:01:20;5.73;;;3.00;;
77598;SDS011;66758;52.078;5.070;2024-02-26T00:03:46;5.53;;;3.07;;
77598;SDS011;66758;52.078;5.070;2024-02-26T00:06:12;4.60;;;2.90;;
77598;SDS011;66758;52.078;5.070;2024-02-26T00:08:38;5.63;;;3.17;;
77598;SDS011;66758;52.078;5.070;2024-02-26T00:11:03;4.70;;;2.70;;
77598;SDS011;66758;52.078;5.070;2024-02-26T00:13:28;5.50;;;2.83;;
77598;SDS011;66758;52.078;5.070;2024-02-26T00:15:54;5.40;;;3.50;;
77598;SDS011;66758;52.078;5.070;2024-02-26T00:18:19;6.77;;;3.23;;
77598;SDS011;66758;52.078;5.070;2024-02-26T00:20:44;9.67;;;3.50;;
77598;SDS011;66758;52.078;5.070;2024-02-26T00:23:10;6.43;;;3.20;;
77598;SDS011;66758;52.078;5.070;2024-02-26T00:25:35;6.63;;;3.13;;
77598;SDS011;66758;52.078;5.070;2024-02-26T00:28:01;5.43;;;3.05;;
77598;SDS011;66758;52.078;5.070;2024-02-26T00:30:27;6.37;;;2.90;;
77598;SDS011;66758;52.078;5.070;2024-02-26T00:32:52;6.40;;;3.53;;
77598;SDS011;66758;52.078;5.070;2024-02-26T00:35:17;4.80;;;3.33;;
77598;SDS011;66758;52.078;5.070;2024-02-26T00:37:45;5.78;;;3.50;;
77598;SDS011;66758;52.078;5.070;2024-02-26T00:40:10;4.93;;;3.23;;
77598;SDS011;66758;52.078;5.070;2024-02-26T00:42:36;4.95;;;3.13;;
77598;SDS011;66758;52.078;5.070;2024-02-26T00:45:01;6.00;;;3.50;;
77598;SDS011;66758;52.078;5.070;2024-02-26T00:47:27;6.70;;;3.90;;
77598;SDS011;66758;52.078;5.070;2024-02-26T00:49:58;9.63;;;4.07;;
77598;SDS011;66758;52.078;5.070;2024-02-26T00:52:23;6.60;;;4.00;;
77598;SDS011;66758;52.078;5.070;2024-02-26T00:54:49;8.47;;;4.00;;
77598;SDS011;66758;52.078;5.070;2024-02-26T00:57:14;7.10;;;4.53;;
77598;SDS011;66758;52.078;5.070;2024-02-26T00:59:39;6.30;;;4.10;;
77598;SDS011;66758;52.078;5.070;2024-02-26T01:02:04;7.40;;;4.37;;
77598;SDS011;66758;52.078;5.070;2024-02-26T01:04:31;6.35;;;4.47;;
77598;SDS011;66758;52.078;5.070;2024-02-26T01:06:57;8.37;;;4.50;;
77598;SDS011;66758;52.078;5.070;2024-02-26T01:09:22;7.47;;;4.73;;
77598;SDS011;66758;52.078;5.070;2024-02-26T01:11:47;6.80;;;4.73;;
77598;SDS011;66758;52.078;5.070;2024-02-26T01:14:13;9.00;;;4.80;;
77598;SDS011;66758;52.078;5.070;2024-02-26T01:16:38;8.67;;;5.27;;
77598;SDS011;66758;52.078;5.070;2024-02-26T01:19:04;8.25;;;5.65;;
77598;SDS011;66758;52.078;5.070;2024-02-26T01:21:29;8.97;;;5.97;;
77598;SDS011;66758;52.078;5.070;2024-02-26T01:23:55;8.13;;;5.67;;
77598;SDS011;66758;52.078;5.070;2024-02-26T01:26:20;8.10;;;5.67;;
77598;SDS011;66758;52.078;5.070;2024-02-26T01:28:47;7.68;;;5.90;;
77598;SDS011;66758;52.078;5.070;2024-02-26T01:31:12;6.97;;;4.87;;
77598;SDS011;66758;52.078;5.070;2024-02-26T01:33:37;9.93;;;5.70;;
77598;SDS011;66758;52.078;5.070;2024-02-26T01:36:02;9.03;;;6.10;;
77598;SDS011;66758;52.078;5.070;2024-02-26T01:38:28;8.50;;;5.23;;
77598;SDS011;66758;52.078;5.070;2024-02-26T01:40:53;8.73;;;5.63;;
77598;SDS011;66758;52.078;5.070;2024-02-26T01:43:19;8.87;;;5.00;;
77598;SDS011;66758;52.078;5.070;2024-02-26T01:45:44;7.87;;;4.90;;
77598;SDS011;66758;52.078;5.070;2024-02-26T01:48:09;7.37;;;4.60;;
77598;SDS011;66758;52.078;5.070;2024-02-26T01:50:35;9.70;;;5.37;;
77598;SDS011;66758;52.078;5.070;2024-02-26T01:53:02;7.40;;;4.68;;
77598;SDS011;66758;52.078;5.070;2024-02-26T01:55:28;7.83;;;4.90;;
77598;SDS011;66758;52.078;5.070;2024-02-26T01:57:53;8.93;;;5.03;;
77598;SDS011;66758;52.078;5.070;2024-02-26T02:00:19;7.67;;;4.83;;
77598;SDS011;66758;52.078;5.070;2024-02-26T02:02:46;8.48;;;5.00;;
77598;SDS011;66758;52.078;5.070;2024-02-26T02:05:14;7.80;;;5.15;;
77598;SDS011;66758;52.078;5.070;2024-02-26T02:07:40;7.00;;;5.23;;
77598;SDS011;66758;52.078;5.070;2024-02-26T02:10:06;8.32;;;4.90;;
77598;SDS011;66758;52.078;5.070;2024-02-26T02:12:32;7.40;;;4.80;;
77598;SDS011;66758;52.078;5.070;2024-02-26T02:14:58;8.05;;;5.18;;
77598;SDS011;66758;52.078;5.070;2024-02-26T02:17:23;8.10;;;5.13;;
77598;SDS011;66758;52.078;5.070;2024-02-26T02:19:48;7.77;;;5.40;;
77598;SDS011;66758;52.078;5.070;2024-02-26T02:22:14;9.43;;;5.40;;
77598;SDS011;66758;52.078;5.070;2024-02-26T02:24:39;8.10;;;4.97;;
77598;SDS011;66758;52.078;5.070;2024-02-26T02:27:04;9.87;;;6.10;;
77598;SDS011;66758;52.078;5.070;2024-02-26T02:29:30;8.57;;;4.90;;
77598;SDS011;66758;52.078;5.070;2024-02-26T02:31:55;9.85;;;5.28;;
77598;SDS011;66758;52.078;5.070;2024-02-26T02:34:21;10.10;;;5.57;;
77598;SDS011;66758;52.078;5.070;2024-02-26T02:36:53;10.00;;;5.53;;
77598;SDS011;66758;52.078;5.070;2024-02-26T02:39:20;8.40;;;5.63;;
77598;SDS011;66758;52.078;5.070;2024-02-26T02:41:46;9.02;;;5.13;;
77598;SDS011;66758;52.078;5.070;2024-02-26T02:44:11;9.73;;;5.77;;
77598;SDS011;66758;52.078;5.070;2024-02-26T02:46:37;10.20;;;5.30;;
77598;SDS011;66758;52.078;5.070;2024-02-26T02:49:02;9.07;;;5.37;;
77598;SDS011;66758;52.078;5.070;2024-02-26T02:51:28;9.37;;;5.03;;
77598;SDS011;66758;52.078;5.070;2024-02-26T02:53:53;9.13;;;4.82;;
77598;SDS011;66758;52.078;5.070;2024-02-26T02:56:18;10.17;;;5.87;;
77598;SDS011;66758;52.078;5.070;2024-02-26T02:58:44;8.97;;;5.17;;
77598;SDS011;66758;52.078;5.070;2024-02-26T03:01:10;9.20;;;5.00;;
77598;SDS011;66758;52.078;5.070;2024-02-26T03:03:35;9.10;;;5.90;;
77598;SDS011;66758;52.078;5.070;2024-02-26T03:06:01;10.02;;;6.22;;
77598;SDS011;66758;52.078;5.070;2024-02-26T03:08:27;7.50;;;4.90;;
77598;SDS011;66758;52.078;5.070;2024-02-26T03:10:53;9.18;;;6.25;;
77598;SDS011;66758;52.078;5.070;2024-02-26T03:13:18;11.60;;;6.07;;
77598;SDS011;66758;52.078;5.070;2024-02-26T03:15:43;12.23;;;6.50;;
77598;SDS011;66758;52.078;5.070;2024-02-26T03:18:09;10.50;;;6.63;;
77598;SDS011;66758;52.078;5.070;2024-02-26T03:20:35;10.73;;;6.07;;
77598;SDS011;66758;52.078;5.070;2024-02-26T03:23:00;11.13;;;6.20;;
77598;SDS011;66758;52.078;5.070;2024-02-26T03:25:25;9.53;;;5.40;;
77598;SDS011;66758;52.078;5.070;2024-02-26T03:27:50;12.53;;;6.50;;
77598;SDS011;66758;52.078;5.070;2024-02-26T03:30:16;12.10;;;6.90;;
77598;SDS011;66758;52.078;5.070;2024-02-26T03:32:41;9.35;;;6.05;;
77598;SDS011;66758;52.078;5.070;2024-02-26T03:35:07;12.27;;;7.80;;
77598;SDS011;66758;52.078;5.070;2024-02-26T03:37:33;11.00;;;6.85;;
77598;SDS011;66758;52.078;5.070;2024-02-26T03:39:58;11.03;;;7.20;;
77598;SDS011;66758;52.078;5.070;2024-02-26T03:42:23;10.87;;;6.00;;
77598;SDS011;66758;52.078;5.070;2024-02-26T03:44:49;13.63;;;8.10;;
77598;SDS011;66758;52.078;5.070;2024-02-26T03:47:14;12.83;;;7.10;;
77598;SDS011;66758;52.078;5.070;2024-02-26T03:49:39;12.07;;;7.47;;
77598;SDS011;66758;52.078;5.070;2024-02-26T03:52:05;10.43;;;6.77;;
77598;SDS011;66758;52.078;5.070;2024-02-26T03:54:30;11.77;;;7.17;;
77598;SDS011;66758;52.078;5.070;2024-02-26T03:56:55;14.53;;;6.70;;
77598;SDS011;66758;52.078;5.070;2024-02-26T03:59:21;13.37;;;7.37;;
77598;SDS011;66758;52.078;5.070;2024-02-26T04:01:49;11.75;;;7.55;;
77598;SDS011;66758;52.078;5.070;2024-02-26T04:04:14;12.38;;;7.88;;
77598;SDS011;66758;52.078;5.070;2024-02-26T04:06:40;13.80;;;6.73;;
77598;SDS011;66758;52.078;5.070;2024-02-26T04:09:09;11.95;;;7.25;;
77598;SDS011;66758;52.078;5.070;2024-02-26T04:11:35;12.43;;;7.47;;
77598;SDS011;66758;52.078;5.070;2024-02-26T04:14:00;11.27;;;7.15;;
77598;SDS011;66758;52.078;5.070;2024-02-26T04:16:26;13.23;;;7.17;;
77598;SDS011;66758;52.078;5.070;2024-02-26T04:18:51;11.63;;;7.20;;
77598;SDS011;66758;52.078;5.070;2024-02-26T04:21:18;13.00;;;7.50;;
77598;SDS011;66758;52.078;5.070;2024-02-26T04:23:43;14.30;;;7.27;;
77598;SDS011;66758;52.078;5.070;2024-02-26T04:26:09;12.23;;;7.80;;
77598;SDS011;66758;52.078;5.070;2024-02-26T04:28:34;13.73;;;7.37;;
77598;SDS011;66758;52.078;5.070;2024-02-26T04:31:00;11.30;;;6.15;;
77598;SDS011;66758;52.078;5.070;2024-02-26T04:33:25;11.63;;;6.43;;
77598;SDS011;66758;52.078;5.070;2024-02-26T04:35:51;12.67;;;7.23;;
77598;SDS011;66758;52.078;5.070;2024-02-26T04:38:16;11.43;;;6.53;;
77598;SDS011;66758;52.078;5.070;2024-02-26T04:40:41;14.70;;;7.07;;
77598;SDS011;66758;52.078;5.070;2024-02-26T04:43:06;15.67;;;8.00;;
77598;SDS011;66758;52.078;5.070;2024-02-26T04:45:32;12.53;;;7.47;;
77598;SDS011;66758;52.078;5.070;2024-02-26T04:47:57;13.77;;;8.07;;
77598;SDS011;66758;52.078;5.070;2024-02-26T04:50:22;15.23;;;8.93;;
77598;SDS011;66758;52.078;5.070;2024-02-26T04:52:48;12.13;;;7.00;;
77598;SDS011;66758;52.078;5.070;2024-02-26T04:55:14;14.43;;;8.83;;
77598;SDS011;66758;52.078;5.070;2024-02-26T04:57:39;15.65;;;9.10;;
77598;SDS011;66758;52.078;5.070;2024-02-26T05:00:05;16.60;;;9.67;;
77598;SDS011;66758;52.078;5.070;2024-02-26T05:02:30;16.13;;;9.03;;
77598;SDS011;66758;52.078;5.070;2024-02-26T05:04:57;14.80;;;8.13;;
77598;SDS011;66758;52.078;5.070;2024-02-26T05:07:22;11.60;;;7.10;;
77598;SDS011;66758;52.078;5.070;2024-02-26T05:09:48;18.17;;;9.13;;
77598;SDS011;66758;52.078;5.070;2024-02-26T05:12:14;16.87;;;8.53;;
77598;SDS011;66758;52.078;5.070;2024-02-26T05:14:40;14.52;;;8.55;;
77598;SDS011;66758;52.078;5.070;2024-02-26T05:17:06;16.60;;;9.13;;
77598;SDS011;66758;52.078;5.070;2024-02-26T05:19:31;18.25;;;8.65;;
77598;SDS011;66758;52.078;5.070;2024-02-26T05:21:57;14.73;;;8.67;;
77598;SDS011;66758;52.078;5.070;2024-02-26T05:24:22;14.13;;;8.30;;
77598;SDS011;66758;52.078;5.070;2024-02-26T05:26:48;14.30;;;8.33;;
77598;SDS011;66758;52.078;5.070;2024-02-26T05:29:13;16.67;;;10.13;;
77598;SDS011;66758;52.078;5.070;2024-02-26T05:31:39;14.03;;;8.00;;
77598;SDS011;66758;52.078;5.070;2024-02-26T05:34:04;18.45;;;9.77;;
77598;SDS011;66758;52.078;5.070;2024-02-26T05:36:30;15.37;;;8.80;;
77598;SDS011;66758;52.078;5.070;2024-02-26T05:38:58;17.13;;;9.43;;
77598;SDS011;66758;52.078;5.070;2024-02-26T05:41:24;18.60;;;9.47;;
77598;SDS011;66758;52.078;5.070;2024-02-26T05:43:51;14.30;;;8.68;;
77598;SDS011;66758;52.078;5.070;2024-02-26T05:46:19;15.73;;;9.43;;
77598;SDS011;66758;52.078;5.070;2024-02-26T05:48:49;16.83;;;9.75;;
77598;SDS011;66758;52.078;5.070;2024-02-26T05:51:15;15.55;;;9.48;;
77598;SDS011;66758;52.078;5.070;2024-02-26T05:53:40;15.70;;;8.67;;
77598;SDS011;66758;52.078;5.070;2024-02-26T05:56:06;16.17;;;9.03;;
77598;SDS011;66758;52.078;5.070;2024-02-26T05:58:31;17.70;;;9.53;;
77598;SDS011;66758;52.078;5.070;2024-02-26T06:00:56;15.57;;;8.17;;
77598;SDS011;66758;52.078;5.070;2024-02-26T06:03:22;18.03;;;10.13;;
77598;SDS011;66758;52.078;5.070;2024-02-26T06:05:47;16.93;;;8.90;;
77598;SDS011;66758;52.078;5.070;2024-02-26T06:08:12;17.20;;;9.00;;
77598;SDS011;66758;52.078;5.070;2024-02-26T06:10:38;16.50;;;8.45;;
77598;SDS011;66758;52.078;5.070;2024-02-26T06:13:04;15.07;;;8.87;;
77598;SDS011;66758;52.078;5.070;2024-02-26T06:15:29;17.23;;;9.07;;
77598;SDS011;66758;52.078;5.070;2024-02-26T06:17:54;19.50;;;10.10;;
77598;SDS011;66758;52.078;5.070;2024-02-26T06:20:20;17.90;;;9.60;;
77598;SDS011;66758;52.078;5.070;2024-02-26T06:22:45;20.27;;;9.40;;
77598;SDS011;66758;52.078;5.070;2024-02-26T06:25:11;17.53;;;9.00;;
77598;SDS011;66758;52.078;5.070;2024-02-26T06:27:36;19.53;;;10.73;;
77598;SDS011;66758;52.078;5.070;2024-02-26T06:30:01;19.43;;;10.10;;
77598;SDS011;66758;52.078;5.070;2024-02-26T06:32:26;18.15;;;9.77;;
77598;SDS011;66758;52.078;5.070;2024-02-26T06:34:53;19.27;;;10.17;;
77598;SDS011;66758;52.078;5.070;2024-02-26T06:37:19;16.17;;;9.17;;
77598;SDS011;66758;52.078;5.070;2024-02-26T06:39:44;21.40;;;10.53;;
77598;SDS011;66758;52.078;5.070;2024-02-26T06:42:12;20.57;;;10.50;;
77598;SDS011;66758;52.078;5.070;2024-02-26T06:44:37;18.70;;;8.77;;
77598;SDS011;66758;52.078;5.070;2024-02-26T06:47:03;19.77;;;10.03;;
77598;SDS011;66758;52.078;5.070;2024-02-26T06:49:33;20.48;;;10.05;;
77598;SDS011;66758;52.078;5.070;2024-02-26T06:52:07;23.42;;;12.15;;
77598;SDS011;66758;52.078;5.070;2024-02-26T06:54:44;23.40;;;11.80;;
77598;SDS011;66758;52.078;5.070;2024-02-26T06:57:13;24.10;;;12.50;;
77598;SDS011;66758;52.078;5.070;2024-02-26T06:59:39;24.90;;;12.37;;
77598;SDS011;66758;52.078;5.070;2024-02-26T07:02:05;23.13;;;12.13;;
77598;SDS011;66758;52.078;5.070;2024-02-26T07:04:30;27.47;;;12.57;;
77598;SDS011;66758;52.078;5.070;2024-02-26T07:06:58;28.48;;;14.52;;
77598;SDS011;66758;52.078;5.070;2024-02-26T07:09:24;28.93;;;15.07;;
77598;SDS011;66758;52.078;5.070;2024-02-26T07:11:50;26.67;;;13.00;;
77598;SDS011;66758;52.078;5.070;2024-02-26T07:14:18;27.95;;;13.68;;
77598;SDS011;66758;52.078;5.070;2024-02-26T07:16:43;30.90;;;14.10;;
77598;SDS011;66758;52.078;5.070;2024-02-26T07:19:09;32.67;;;16.07;;
77598;SDS011;66758;52.078;5.070;2024-02-26T07:21:34;31.73;;;15.93;;
77598;SDS011;66758;52.078;5.070;2024-02-26T07:23:59;34.67;;;15.97;;
77598;SDS011;66758;52.078;5.070;2024-02-26T07:26:24;33.57;;;15.70;;
77598;SDS011;66758;52.078;5.070;2024-02-26T07:28:51;31.15;;;17.08;;
77598;SDS011;66758;52.078;5.070;2024-02-26T07:31:19;31.58;;;14.65;;
77598;SDS011;66758;52.078;5.070;2024-02-26T07:33:45;33.88;;;16.45;;
77598;SDS011;66758;52.078;5.070;2024-02-26T07:36:10;35.10;;;16.53;;
77598;SDS011;66758;52.078;5.070;2024-02-26T07:38:36;36.83;;;16.83;;
77598;SDS011;66758;52.078;5.070;2024-02-26T07:41:02;36.50;;;16.87;;
77598;SDS011;66758;52.078;5.070;2024-02-26T07:43:27;33.22;;;15.60;;
77598;SDS011;66758;52.078;5.070;2024-02-26T07:45:53;36.43;;;17.27;;
77598;SDS011;66758;52.078;5.070;2024-02-26T07:48:18;36.67;;;19.27;;
77598;SDS011;66758;52.078;5.070;2024-02-26T07:50:43;34.37;;;17.50;;
77598;SDS011;66758;52.078;5.070;2024-02-26T07:53:08;31.73;;;16.27;;
77598;SDS011;66758;52.078;5.070;2024-02-26T07:55:34;31.30;;;17.30;;
77598;SDS011;66758;52.078;5.070;2024-02-26T07:57:59;28.30;;;12.93;;
77598;SDS011;66758;52.078;5.070;2024-02-26T08:00:25;32.83;;;17.97;;
77598;SDS011;66758;52.078;5.070;2024-02-26T08:02:50;30.90;;;16.43;;
77598;SDS011;66758;52.078;5.070;2024-02-26T08:05:15;29.43;;;15.23;;
77598;SDS011;66758;52.078;5.070;2024-02-26T08:07:42;32.50;;;18.23;;
77598;SDS011;66758;52.078;5.070;2024-02-26T08:10:07;29.20;;;15.55;;
77598;SDS011;66758;52.078;5.070;2024-02-26T08:12:33;32.03;;;19.50;;
77598;SDS011;66758;52.078;5.070;2024-02-26T08:14:58;28.10;;;15.07;;
77598;SDS011;66758;52.078;5.070;2024-02-26T08:17:24;28.27;;;14.30;;
77598;SDS011;66758;52.078;5.070;2024-02-26T08:19:49;26.08;;;16.52;;
77598;SDS011;66758;52.078;5.070;2024-02-26T08:22:14;25.70;;;14.47;;
77598;SDS011;66758;52.078;5.070;2024-02-26T08:24:42;22.73;;;12.63;;
77598;SDS011;66758;52.078;5.070;2024-02-26T08:27:07;23.73;;;13.80;;
77598;SDS011;66758;52.078;5.070;2024-02-26T08:29:33;22.93;;;12.53;;
77598;SDS011;66758;52.078;5.070;2024-02-26T08:31:58;22.40;;;12.63;;
77598;SDS011;66758;52.078;5.070;2024-02-26T08:34:24;21.02;;;12.23;;
77598;SDS011;66758;52.078;5.070;2024-02-26T08:36:49;20.37;;;11.63;;
77598;SDS011;66758;52.078;5.070;2024-02-26T08:39:16;19.45;;;11.30;;
77598;SDS011;66758;52.078;5.070;2024-02-26T08:41:42;20.52;;;10.63;;
77598;SDS011;66758;52.078;5.070;2024-02-26T08:44:07;21.27;;;10.73;;
77598;SDS011;66758;52.078;5.070;2024-02-26T08:46:33;17.37;;;10.50;;
77598;SDS011;66758;52.078;5.070;2024-02-26T08:48:58;18.30;;;12.07;;
77598;SDS011;66758;52.078;5.070;2024-02-26T08:51:23;16.33;;;9.43;;
77598;SDS011;66758;52.078;5.070;2024-02-26T08:53:49;16.17;;;8.80;;
77598;SDS011;66758;52.078;5.070;2024-02-26T08:56:16;16.93;;;10.20;;
77598;SDS011;66758;52.078;5.070;2024-02-26T08:58:44;17.80;;;8.45;;
77598;SDS011;66758;52.078;5.070;2024-02-26T09:01:09;17.67;;;9.37;;
77598;SDS011;66758;52.078;5.070;2024-02-26T09:03:34;17.30;;;9.40;;
77598;SDS011;66758;52.078;5.070;2024-02-26T09:06:00;15.53;;;7.67;;
77598;SDS011;66758;52.078;5.070;2024-02-26T09:08:25;15.67;;;9.07;;
77598;SDS011;66758;52.078;5.070;2024-02-26T09:10:50;15.93;;;9.20;;
77598;SDS011;66758;52.078;5.070;2024-02-26T09:13:16;15.00;;;8.53;;
77598;SDS011;66758;52.078;5.070;2024-02-26T09:15:41;16.47;;;8.43;;
77598;SDS011;66758;52.078;5.070;2024-02-26T09:18:06;17.53;;;9.60;;
77598;SDS011;66758;52.078;5.070;2024-02-26T09:20:32;14.70;;;6.80;;
77598;SDS011;66758;52.078;5.070;2024-02-26T09:22:57;14.82;;;7.85;;
77598;SDS011;66758;52.078;5.070;2024-02-26T09:25:22;14.63;;;7.80;;
77598;SDS011;66758;52.078;5.070;2024-02-26T09:27:47;15.33;;;8.07;;
77598;SDS011;66758;52.078;5.070;2024-02-26T09:30:14;15.27;;;8.63;;
77598;SDS011;66758;52.078;5.070;2024-02-26T09:32:39;13.63;;;7.77;;
77598;SDS011;66758;52.078;5.070;2024-02-26T09:35:08;12.83;;;6.90;;
77598;SDS011;66758;52.078;5.070;2024-02-26T09:37:33;15.88;;;8.10;;
77598;SDS011;66758;52.078;5.070;2024-02-26T09:39:59;13.98;;;7.70;;
77598;SDS011;66758;52.078;5.070;2024-02-26T09:42:27;15.03;;;7.13;;
77598;SDS011;66758;52.078;5.070;2024-02-26T09:44:55;14.23;;;7.03;;
77598;SDS011;66758;52.078;5.070;2024-02-26T09:50:42;12.75;;;7.75;;
77598;SDS011;66758;52.078;5.070;2024-02-26T09:53:08;12.47;;;6.87;;
77598;SDS011;66758;52.078;5.070;2024-02-26T09:55:35;12.23;;;7.53;;
77598;SDS011;66758;52.078;5.070;2024-02-26T09:58:00;15.57;;;7.50;;
77598;SDS011;66758;52.078;5.070;2024-02-26T10:00:26;15.13;;;8.50;;
77598;SDS011;66758;52.078;5.070;2024-02-26T10:02:53;11.68;;;6.65;;
77598;SDS011;66758;52.078;5.070;2024-02-26T10:05:21;11.17;;;6.00;;
77598;SDS011;66758;52.078;5.070;2024-02-26T10:07:47;11.48;;;5.82;;
77598;SDS011;66758;52.078;5.070;2024-02-26T10:10:13;10.90;;;6.30;;
77598;SDS011;66758;52.078;5.070;2024-02-26T10:12:38;11.63;;;6.22;;
77598;SDS011;66758;52.078;5.070;2024-02-26T10:15:04;11.00;;;6.73;;
77598;SDS011;66758;52.078;5.070;2024-02-26T10:17:29;12.03;;;6.83;;
77598;SDS011;66758;52.078;5.070;2024-02-26T10:19:55;13.30;;;6.80;;
77598;SDS011;66758;52.078;5.070;2024-02-26T10:22:35;12.80;;;6.60;;
77598;SDS011;66758;52.078;5.070;2024-02-26T10:25:00;13.70;;;6.60;;
77598;SDS011;66758;52.078;5.070;2024-02-26T10:27:25;12.33;;;6.00;;
77598;SDS011;66758;52.078;5.070;2024-02-26T10:29:50;19.40;;;6.30;;
77598;SDS011;66758;52.078;5.070;2024-02-26T10:32:18;13.30;;;8.20;;
77598;SDS011;66758;52.078;5.070;2024-02-26T10:34:43;14.70;;;7.53;;
77598;SDS011;66758;52.078;5.070;2024-02-26T10:37:09;13.70;;;7.23;;
77598;SDS011;66758;52.078;5.070;2024-02-26T10:39:35;16.23;;;6.90;;
77598;SDS011;66758;52.078;5.070;2024-02-26T10:42:01;13.10;;;7.57;;
77598;SDS011;66758;52.078;5.070;2024-02-26T10:44:31;12.07;;;6.43;;
77598;SDS011;66758;52.078;5.070;2024-02-26T10:46:57;12.30;;;7.10;;
77598;SDS011;66758;52.078;5.070;2024-02-26T10:49:22;12.87;;;6.37;;
77598;SDS011;66758;52.078;5.070;2024-02-26T10:51:55;13.75;;;7.07;;
77598;SDS011;66758;52.078;5.070;2024-02-26T10:54:24;14.98;;;6.20;;
77598;SDS011;66758;52.078;5.070;2024-02-26T10:56:50;13.65;;;7.75;;
77598;SDS011;66758;52.078;5.070;2024-02-26T10:59:16;13.07;;;6.63;;
77598;SDS011;66758;52.078;5.070;2024-02-26T11:01:45;11.88;;;6.82;;
77598;SDS011;66758;52.078;5.070;2024-02-26T11:04:12;15.57;;;7.55;;
77598;SDS011;66758;52.078;5.070;2024-02-26T11:06:38;13.53;;;8.13;;
77598;SDS011;66758;52.078;5.070;2024-02-26T11:09:03;15.07;;;8.00;;
77598;SDS011;66758;52.078;5.070;2024-02-26T11:11:30;12.85;;;6.20;;
77598;SDS011;66758;52.078;5.070;2024-02-26T11:13:56;14.40;;;7.82;;
77598;SDS011;66758;52.078;5.070;2024-02-26T11:16:23;12.18;;;7.32;;
77598;SDS011;66758;52.078;5.070;2024-02-26T11:18:48;13.30;;;6.77;;
77598;SDS011;66758;52.078;5.070;2024-02-26T11:21:17;13.70;;;7.70;;
77598;SDS011;66758;52.078;5.070;2024-02-26T11:23:52;12.07;;;6.50;;
77598;SDS011;66758;52.078;5.070;2024-02-26T11:26:18;15.65;;;8.20;;
77598;SDS011;66758;52.078;5.070;2024-02-26T11:28:44;13.47;;;6.97;;
77598;SDS011;66758;52.078;5.070;2024-02-26T11:31:09;16.90;;;7.93;;
77598;SDS011;66758;52.078;5.070;2024-02-26T11:33:35;13.63;;;8.00;;
77598;SDS011;66758;52.078;5.070;2024-02-26T11:36:01;13.70;;;7.57;;
77598;SDS011;66758;52.078;5.070;2024-02-26T11:38:27;15.73;;;8.60;;
77598;SDS011;66758;52.078;5.070;2024-02-26T11:40:53;14.60;;;8.23;;
77598;SDS011;66758;52.078;5.070;2024-02-26T11:43:22;15.33;;;9.03;;
77598;SDS011;66758;52.078;5.070;2024-02-26T11:45:48;15.23;;;6.95;;
77598;SDS011;66758;52.078;5.070;2024-02-26T11:48:19;15.93;;;7.80;;
77598;SDS011;66758;52.078;5.070;2024-02-26T11:50:49;12.87;;;7.17;;
77598;SDS011;66758;52.078;5.070;2024-02-26T11:53:25;13.82;;;8.07;;
77598;SDS011;66758;52.078;5.070;2024-02-26T11:58:46;11.82;;;6.97;;
77598;SDS011;66758;52.078;5.070;2024-02-26T12:03:56;13.18;;;7.05;;
77598;SDS011;66758;52.078;5.070;2024-02-26T12:06:21;12.87;;;7.27;;
77598;SDS011;66758;52.078;5.070;2024-02-26T12:08:47;12.60;;;6.90;;
77598;SDS011;66758;52.078;5.070;2024-02-26T12:11:15;13.30;;;7.63;;
77598;SDS011;66758;52.078;5.070;2024-02-26T12:13:41;16.33;;;8.20;;
77598;SDS011;66758;52.078;5.070;2024-02-26T12:16:06;11.47;;;6.30;;
77598;SDS011;66758;52.078;5.070;2024-02-26T12:18:32;14.93;;;6.70;;
77598;SDS011;66758;52.078;5.070;2024-02-26T12:20:59;12.48;;;7.20;;
77598;SDS011;66758;52.078;5.070;2024-02-26T12:23:28;12.73;;;6.60;;
77598;SDS011;66758;52.078;5.070;2024-02-26T12:25:53;12.20;;;6.97;;
77598;SDS011;66758;52.078;5.070;2024-02-26T12:28:19;11.67;;;7.17;;
77598;SDS011;66758;52.078;5.070;2024-02-26T12:30:44;10.07;;;5.43;;
77598;SDS011;66758;52.078;5.070;2024-02-26T12:33:09;12.13;;;6.20;;
77598;SDS011;66758;52.078;5.070;2024-02-26T12:35:35;11.53;;;6.90;;
77598;SDS011;66758;52.078;5.070;2024-02-26T12:38:01;12.73;;;7.20;;
77598;SDS011;66758;52.078;5.070;2024-02-26T12:40:27;12.20;;;6.63;;
77598;SDS011;66758;52.078;5.070;2024-02-26T12:43:02;11.30;;;6.13;;
77598;SDS011;66758;52.078;5.070;2024-02-26T12:45:41;12.85;;;7.22;;
77598;SDS011;66758;52.078;5.070;2024-02-26T12:48:06;12.20;;;7.03;;
77598;SDS011;66758;52.078;5.070;2024-02-26T12:50:32;11.25;;;6.55;;
77598;SDS011;66758;52.078;5.070;2024-02-26T12:52:57;11.33;;;6.30;;
77598;SDS011;66758;52.078;5.070;2024-02-26T12:55:23;11.50;;;6.18;;
77598;SDS011;66758;52.078;5.070;2024-02-26T12:57:48;10.50;;;5.93;;
77598;SDS011;66758;52.078;5.070;2024-02-26T13:00:22;9.57;;;5.78;;
77598;SDS011;66758;52.078;5.070;2024-02-26T13:02:49;11.10;;;5.57;;
77598;SDS011;66758;52.078;5.070;2024-02-26T13:05:14;9.90;;;5.88;;
77598;SDS011;66758;52.078;5.070;2024-02-26T13:07:41;11.45;;;4.82;;
77598;SDS011;66758;52.078;5.070;2024-02-26T13:10:07;7.90;;;3.97;;
77598;SDS011;66758;52.078;5.070;2024-02-26T13:12:33;11.40;;;5.90;;
77598;SDS011;66758;52.078;5.070;2024-02-26T13:15:02;10.63;;;5.93;;
77598;SDS011;66758;52.078;5.070;2024-02-26T13:17:27;10.23;;;6.27;;
77598;SDS011;66758;52.078;5.070;2024-02-26T13:19:56;11.95;;;6.13;;
77598;SDS011;66758;52.078;5.070;2024-02-26T13:22:21;9.83;;;5.43;;
77598;SDS011;66758;52.078;5.070;2024-02-26T13:24:57;10.10;;;5.35;;
77598;SDS011;66758;52.078;5.070;2024-02-26T13:27:22;9.90;;;4.57;;
77598;SDS011;66758;52.078;5.070;2024-02-26T13:29:48;9.57;;;5.63;;
77598;SDS011;66758;52.078;5.070;2024-02-26T13:32:13;10.00;;;6.10;;
77598;SDS011;66758;52.078;5.070;2024-02-26T13:34:38;10.53;;;5.77;;
77598;SDS011;66758;52.078;5.070;2024-02-26T13:37:04;9.87;;;5.60;;
77598;SDS011;66758;52.078;5.070;2024-02-26T13:39:30;10.93;;;5.47;;
77598;SDS011;66758;52.078;5.070;2024-02-26T13:41:55;8.87;;;4.37;;
77598;SDS011;66758;52.078;5.070;2024-02-26T13:44:22;8.53;;;4.97;;
77598;SDS011;66758;52.078;5.070;2024-02-26T13:46:47;8.52;;;4.65;;
77598;SDS011;66758;52.078;5.070;2024-02-26T13:49:14;9.03;;;5.57;;
77598;SDS011;66758;52.078;5.070;2024-02-26T13:51:39;9.73;;;5.50;;
77598;SDS011;66758;52.078;5.070;2024-02-26T13:54:04;9.07;;;6.37;;
77598;SDS011;66758;52.078;5.070;2024-02-26T13:56:30;7.47;;;4.77;;
77598;SDS011;66758;52.078;5.070;2024-02-26T13:58:55;7.63;;;4.30;;
77598;SDS011;66758;52.078;5.070;2024-02-26T14:01:21;10.70;;;4.67;;
77598;SDS011;66758;52.078;5.070;2024-02-26T14:03:46;9.23;;;4.87;;
77598;SDS011;66758;52.078;5.070;2024-02-26T14:06:11;8.33;;;4.67;;
77598;SDS011;66758;52.078;5.070;2024-02-26T14:08:37;9.27;;;4.90;;
77598;SDS011;66758;52.078;5.070;2024-02-26T14:11:02;8.33;;;4.90;;
77598;SDS011;66758;52.078;5.070;2024-02-26T14:13:27;7.17;;;4.37;;
77598;SDS011;66758;52.078;5.070;2024-02-26T14:15:52;7.97;;;4.17;;
77598;SDS011;66758;52.078;5.070;2024-02-26T14:18:18;7.87;;;4.30;;
77598;SDS011;66758;52.078;5.070;2024-02-26T14:20:43;8.03;;;4.87;;
77598;SDS011;66758;52.078;5.070;2024-02-26T14:23:09;8.95;;;4.93;;
77598;SDS011;66758;52.078;5.070;2024-02-26T14:25:35;9.00;;;4.97;;
77598;SDS011;66758;52.078;5.070;2024-02-26T14:28:01;9.00;;;5.32;;
77598;SDS011;66758;52.078;5.070;2024-02-26T14:30:27;9.37;;;4.27;;
77598;SDS011;66758;52.078;5.070;2024-02-26T14:32:52;6.90;;;4.30;;
77598;SDS011;66758;52.078;5.070;2024-02-26T14:35:17;7.70;;;4.70;;
77598;SDS011;66758;52.078;5.070;2024-02-26T14:37:43;8.97;;;3.77;;